sensor_id;sensor_type;location;lat;lon;timestamp;pressure;altitude;pressure_sealevel;temperature;humidity
57779;BME280;43608;49.486;9.640;2023-04-10T00:00:10;99437.88;;;1.65;79.51
57779;BME280;43608;49.486;9.640;2023-04-10T00:00:41;99441.34;;;1.64;79.39
57779;BME280;43608;49.486;9.640;2023-04-10T00:01:14;99441.34;;;1.64;79.66
57779;BME280;43608;49.486;9.640;2023-04-10T00:01:45;99421.97;;;1.59;79.52
57779;BME280;43608;49.486;9.640;2023-04-10T00:02:15;99439.50;;;1.61;79.87
57779;BME280;43608;49.486;9.640;2023-04-10T00:02:45;99441.19;;;1.61;79.54
57779;BME280;43608;49.486;9.640;2023-04-10T00:03:17;99443.75;;;1.59;80.01
57779;BME280;43608;49.486;9.640;2023-04-10T00:03:48;99438.53;;;1.59;79.91
57779;BME280;43608;49.486;9.640;2023-04-10T00:04:18;99417.00;;;1.45;80.26
57779;BME280;43608;49.486;9.640;2023-04-10T00:04:49;99438.41;;;1.56;80.05
57779;BME280;43608;49.486;9.640;2023-04-10T00:05:19;99427.81;;;1.53;80.22
57779;BME280;43608;49.486;9.640;2023-04-10T00:05:50;99432.22;;;1.54;80.51
57779;BME280;43608;49.486;9.640;2023-04-10T00:06:20;99435.56;;;1.52;80.31
57779;BME280;43608;49.486;9.640;2023-04-10T00:06:50;99427.63;;;1.48;80.20
57779;BME280;43608;49.486;9.640;2023-04-10T00:07:21;99435.56;;;1.52;80.40
57779;BME280;43608;49.486;9.640;2023-04-10T00:07:51;99434.53;;;1.48;80.37
57779;BME280;43608;49.486;9.640;2023-04-10T00:08:23;99428.16;;;1.41;80.65
57779;BME280;43608;49.486;9.640;2023-04-10T00:08:53;99430.94;;;1.44;80.42
57779;BME280;43608;49.486;9.640;2023-04-10T00:09:24;99424.59;;;1.39;80.57
57779;BME280;43608;49.486;9.640;2023-04-10T00:09:54;99398.69;;;1.24;80.43
57779;BME280;43608;49.486;9.640;2023-04-10T00:10:25;99431.75;;;1.43;80.51
57779;BME280;43608;49.486;9.640;2023-04-10T00:10:57;99437.91;;;1.45;80.36
57779;BME280;43608;49.486;9.640;2023-04-10T00:11:28;99432.34;;;1.38;80.32
57779;BME280;43608;49.486;9.640;2023-04-10T00:11:58;99420.97;;;1.36;80.38
57779;BME280;43608;49.486;9.640;2023-04-10T00:12:29;99435.13;;;1.41;80.74
57779;BME280;43608;49.486;9.640;2023-04-10T00:13:00;99435.94;;;1.40;80.79
57779;BME280;43608;49.486;9.640;2023-04-10T00:13:35;99435.81;;;1.37;80.37
57779;BME280;43608;49.486;9.640;2023-04-10T00:14:05;99420.63;;;1.28;80.49
57779;BME280;43608;49.486;9.640;2023-04-10T00:14:36;99434.00;;;1.36;80.50
57779;BME280;43608;49.486;9.640;2023-04-10T00:15:07;99424.94;;;1.27;80.66
57779;BME280;43608;49.486;9.640;2023-04-10T00:15:38;99434.78;;;1.33;80.68
57779;BME280;43608;49.486;9.640;2023-04-10T00:16:08;99427.63;;;1.29;80.37
57779;BME280;43608;49.486;9.640;2023-04-10T00:16:38;99417.84;;;1.25;80.55
57779;BME280;43608;49.486;9.640;2023-04-10T00:17:09;99436.34;;;1.29;80.51
57779;BME280;43608;49.486;9.640;2023-04-10T00:17:39;99433.69;;;1.28;80.33
57779;BME280;43608;49.486;9.640;2023-04-10T00:18:10;99435.47;;;1.29;80.59
57779;BME280;43608;49.486;9.640;2023-04-10T00:18:41;99365.84;;;0.90;80.36
57779;BME280;43608;49.486;9.640;2023-04-10T00:19:11;99420.47;;;1.25;80.44
57779;BME280;43608;49.486;9.640;2023-04-10T00:19:41;99435.31;;;1.26;80.15
57779;BME280;43608;49.486;9.640;2023-04-10T00:20:12;99409.69;;;1.17;80.68
57779;BME280;43608;49.486;9.640;2023-04-10T00:20:42;99424.88;;;1.26;80.58
57779;BME280;43608;49.486;9.640;2023-04-10T00:21:13;99421.31;;;1.24;80.53
57779;BME280;43608;49.486;9.640;2023-04-10T00:21:43;99424.81;;;1.24;80.79
57779;BME280;43608;49.486;9.640;2023-04-10T00:22:14;99412.44;;;1.20;80.85
57779;BME280;43608;49.486;9.640;2023-04-10T00:22:44;99423.91;;;1.24;80.88
57779;BME280;43608;49.486;9.640;2023-04-10T00:23:15;99423.00;;;1.23;80.58
57779;BME280;43608;49.486;9.640;2023-04-10T00:23:45;99423.81;;;1.22;80.88
57779;BME280;43608;49.486;9.640;2023-04-10T00:24:15;99425.63;;;1.23;80.72
57779;BME280;43608;49.486;9.640;2023-04-10T00:24:46;99404.25;;;1.12;80.61
57779;BME280;43608;49.486;9.640;2023-04-10T00:25:16;99421.09;;;1.19;80.75
57779;BME280;43608;49.486;9.640;2023-04-10T00:25:47;99422.06;;;1.21;81.26
57779;BME280;43608;49.486;9.640;2023-04-10T00:26:18;99416.84;;;1.21;81.13
57779;BME280;43608;49.486;9.640;2023-04-10T00:26:49;99413.06;;;1.14;81.04
57779;BME280;43608;49.486;9.640;2023-04-10T00:27:20;99398.91;;;1.09;80.98
57779;BME280;43608;49.486;9.640;2023-04-10T00:27:51;99421.91;;;1.18;80.72
57779;BME280;43608;49.486;9.640;2023-04-10T00:28:22;99418.47;;;1.19;81.02
57779;BME280;43608;49.486;9.640;2023-04-10T00:28:52;99414.00;;;1.17;80.88
57779;BME280;43608;49.486;9.640;2023-04-10T00:29:23;99423.63;;;1.18;81.26
57779;BME280;43608;49.486;9.640;2023-04-10T00:29:53;99417.44;;;1.15;81.02
57779;BME280;43608;49.486;9.640;2023-04-10T00:30:24;99412.03;;;1.11;81.09
57779;BME280;43608;49.486;9.640;2023-04-10T00:30:54;99420.81;;;1.13;81.03
57779;BME280;43608;49.486;9.640;2023-04-10T00:31:25;99419.03;;;1.12;81.52
57779;BME280;43608;49.486;9.640;2023-04-10T00:31:56;99414.47;;;1.08;80.98
57779;BME280;43608;49.486;9.640;2023-04-10T00:32:27;99408.25;;;1.04;81.60
57779;BME280;43608;49.486;9.640;2023-04-10T00:32:57;99414.56;;;1.09;81.31
57779;BME280;43608;49.486;9.640;2023-04-10T00:33:28;99417.94;;;1.07;81.28
57779;BME280;43608;49.486;9.640;2023-04-10T00:33:58;99418.94;;;1.10;81.21
57779;BME280;43608;49.486;9.640;2023-04-10T00:34:28;99421.50;;;1.09;81.34
57779;BME280;43608;49.486;9.640;2023-04-10T00:34:59;99414.34;;;1.05;81.13
57779;BME280;43608;49.486;9.640;2023-04-10T00:35:30;99391.25;;;0.94;81.48
57779;BME280;43608;49.486;9.640;2023-04-10T00:36:01;99414.47;;;1.08;81.33
57779;BME280;43608;49.486;9.640;2023-04-10T00:36:31;99406.41;;;1.02;81.43
57779;BME280;43608;49.486;9.640;2023-04-10T00:37:02;99405.53;;;1.03;81.38
57779;BME280;43608;49.486;9.640;2023-04-10T00:37:32;99401.94;;;0.99;81.49
57779;BME280;43608;49.486;9.640;2023-04-10T00:38:02;99423.97;;;1.06;81.94
57779;BME280;43608;49.486;9.640;2023-04-10T00:38:33;99412.50;;;1.02;81.69
57779;BME280;43608;49.486;9.640;2023-04-10T00:39:04;99420.44;;;1.05;81.43
57779;BME280;43608;49.486;9.640;2023-04-10T00:39:34;99407.16;;;0.99;81.47
57779;BME280;43608;49.486;9.640;2023-04-10T00:40:05;99421.31;;;1.04;81.89
57779;BME280;43608;49.486;9.640;2023-04-10T00:40:36;99405.06;;;0.92;81.50
57779;BME280;43608;49.486;9.640;2023-04-10T00:41:06;99402.47;;;0.92;81.60
57779;BME280;43608;49.486;9.640;2023-04-10T00:41:37;99415.72;;;0.96;81.83
57779;BME280;43608;49.486;9.640;2023-04-10T00:42:07;99412.22;;;0.96;81.82
57779;BME280;43608;49.486;9.640;2023-04-10T00:42:39;99406.94;;;0.94;81.86
57779;BME280;43608;49.486;9.640;2023-04-10T00:43:09;99392.66;;;0.86;81.80
57779;BME280;43608;49.486;9.640;2023-04-10T00:43:40;99414.88;;;0.97;81.71
57779;BME280;43608;49.486;9.640;2023-04-10T00:44:10;99421.97;;;1.00;81.97
57779;BME280;43608;49.486;9.640;2023-04-10T00:44:41;99412.22;;;0.96;81.65
57779;BME280;43608;49.486;9.640;2023-04-10T00:45:14;99402.41;;;0.90;81.84
57779;BME280;43608;49.486;9.640;2023-04-10T00:45:44;99410.34;;;0.93;81.86
57779;BME280;43608;49.486;9.640;2023-04-10T00:46:15;99405.06;;;0.92;82.05
57779;BME280;43608;49.486;9.640;2023-04-10T00:46:46;99399.56;;;0.86;82.26
57779;BME280;43608;49.486;9.640;2023-04-10T00:47:16;99396.81;;;0.82;81.73
57779;BME280;43608;49.486;9.640;2023-04-10T00:47:47;99381.03;;;0.79;81.94
57779;BME280;43608;49.486;9.640;2023-04-10T00:48:17;99407.81;;;0.95;81.80
57779;BME280;43608;49.486;9.640;2023-04-10T00:48:51;99406.88;;;0.93;81.79
57779;BME280;43608;49.486;9.640;2023-04-10T00:49:22;99405.13;;;0.93;81.61
57779;BME280;43608;49.486;9.640;2023-04-10T00:49:52;99412.09;;;0.93;81.89
57779;BME280;43608;49.486;9.640;2023-04-10T00:50:23;99382.59;;;0.76;82.00
57779;BME280;43608;49.486;9.640;2023-04-10T00:50:53;99386.25;;;0.79;81.88
57779;BME280;43608;49.486;9.640;2023-04-10T00:51:24;99409.31;;;0.90;82.03
57779;BME280;43608;49.486;9.640;2023-04-10T00:51:56;99399.44;;;0.82;82.24
57779;BME280;43608;49.486;9.640;2023-04-10T00:52:26;99397.69;;;0.83;82.17
57779;BME280;43608;49.486;9.640;2023-04-10T00:52:57;99387.94;;;0.79;81.91
57779;BME280;43608;49.486;9.640;2023-04-10T00:53:28;99409.25;;;0.88;81.93
57779;BME280;43608;49.486;9.640;2023-04-10T00:53:59;99411.78;;;0.87;81.91
57779;BME280;43608;49.486;9.640;2023-04-10T00:54:30;99410.91;;;0.86;82.14
57779;BME280;43608;49.486;9.640;2023-04-10T00:55:01;99394.97;;;0.80;82.32
57779;BME280;43608;49.486;9.640;2023-04-10T00:55:32;99401.06;;;0.80;82.38
57779;BME280;43608;49.486;9.640;2023-04-10T00:56:02;99403.84;;;0.84;82.40
57779;BME280;43608;49.486;9.640;2023-04-10T00:56:33;99398.38;;;0.79;82.07
57779;BME280;43608;49.486;9.640;2023-04-10T00:57:04;99408.13;;;0.83;82.46
57779;BME280;43608;49.486;9.640;2023-04-10T00:57:34;99393.03;;;0.76;82.43
57779;BME280;43608;49.486;9.640;2023-04-10T00:58:05;99405.47;;;0.81;82.47
57779;BME280;43608;49.486;9.640;2023-04-10T00:58:36;99404.44;;;0.78;82.32
57779;BME280;43608;49.486;9.640;2023-04-10T00:59:06;99402.66;;;0.77;82.33
57779;BME280;43608;49.486;9.640;2023-04-10T00:59:37;99408.81;;;0.79;82.23
57779;BME280;43608;49.486;9.640;2023-04-10T01:00:07;99407.88;;;0.77;82.34
57779;BME280;43608;49.486;9.640;2023-04-10T01:00:38;99405.28;;;0.77;82.50
57779;BME280;43608;49.486;9.640;2023-04-10T01:01:09;99405.34;;;0.78;82.30
57779;BME280;43608;49.486;9.640;2023-04-10T01:01:40;99406.97;;;0.76;82.61
57779;BME280;43608;49.486;9.640;2023-04-10T01:02:11;99396.34;;;0.72;82.63
57779;BME280;43608;49.486;9.640;2023-04-10T01:02:42;99409.50;;;0.75;82.30
57779;BME280;43608;49.486;9.640;2023-04-10T01:03:14;99401.69;;;0.75;82.19
57779;BME280;43608;49.486;9.640;2023-04-10T01:03:45;99391.94;;;0.71;82.18
57779;BME280;43608;49.486;9.640;2023-04-10T01:04:16;99399.91;;;0.74;82.28
57779;BME280;43608;49.486;9.640;2023-04-10T01:04:47;99383.69;;;0.61;82.37
57779;BME280;43608;49.486;9.640;2023-04-10T01:05:17;99388.06;;;0.62;82.40
57779;BME280;43608;49.486;9.640;2023-04-10T01:06:35;99402.31;;;0.69;82.17
57779;BME280;43608;49.486;9.640;2023-04-10T01:08:01;99402.31;;;0.69;82.61
57779;BME280;43608;49.486;9.640;2023-04-10T01:09:13;99402.91;;;0.63;82.34
57779;BME280;43608;49.486;9.640;2023-04-10T01:09:47;99409.03;;;0.64;82.46
57779;BME280;43608;49.486;9.640;2023-04-10T01:11:12;99391.16;;;0.54;82.17
57779;BME280;43608;49.486;9.640;2023-04-10T01:11:54;99409.84;;;0.63;82.33
57779;BME280;43608;49.486;9.640;2023-04-10T01:13:11;99410.59;;;0.60;82.19
57779;BME280;43608;49.486;9.640;2023-04-10T01:14:30;99389.06;;;0.46;82.18
57779;BME280;43608;49.486;9.640;2023-04-10T01:15:12;99403.28;;;0.53;82.32
57779;BME280;43608;49.486;9.640;2023-04-10T01:16:00;99410.47;;;0.57;82.34
57779;BME280;43608;49.486;9.640;2023-04-10T01:17:08;99414.69;;;0.55;82.48
57779;BME280;43608;49.486;9.640;2023-04-10T01:20:25;99410.97;;;0.50;82.59
57779;BME280;43608;49.486;9.640;2023-04-10T01:20:58;99387.81;;;0.38;82.55
57779;BME280;43608;49.486;9.640;2023-04-10T01:21:34;99413.50;;;0.48;82.67
57779;BME280;43608;49.486;9.640;2023-04-10T01:22:05;99396.59;;;0.40;82.46
57779;BME280;43608;49.486;9.640;2023-04-10T01:24:06;99407.25;;;0.45;82.55
57779;BME280;43608;49.486;9.640;2023-04-10T01:27:28;99407.63;;;0.35;82.62
57779;BME280;43608;49.486;9.640;2023-04-10T01:27:34;99419.25;;;0.41;82.96
57779;BME280;43608;49.486;9.640;2023-04-10T01:28:23;99420.06;;;0.40;83.21
57779;BME280;43608;49.486;9.640;2023-04-10T01:29:16;99408.50;;;0.35;82.70
57779;BME280;43608;49.486;9.640;2023-04-10T01:29:52;99422.59;;;0.39;83.04
57779;BME280;43608;49.486;9.640;2023-04-10T01:30:25;99413.88;;;0.38;83.37
57779;BME280;43608;49.486;9.640;2023-04-10T01:30:58;99403.97;;;0.31;83.36
57779;BME280;43608;49.486;9.640;2023-04-10T01:31:44;99414.63;;;0.36;83.56
57779;BME280;43608;49.486;9.640;2023-04-10T01:32:19;99414.63;;;0.36;83.21
57779;BME280;43608;49.486;9.640;2023-04-10T01:32:54;99422.53;;;0.37;82.95
57779;BME280;43608;49.486;9.640;2023-04-10T01:33:35;99418.06;;;0.35;83.28
57779;BME280;43608;49.486;9.640;2023-04-10T01:34:14;99424.09;;;0.33;83.57
57779;BME280;43608;49.486;9.640;2023-04-10T01:34:48;99421.34;;;0.30;83.26
57779;BME280;43608;49.486;9.640;2023-04-10T01:35:20;99382.16;;;0.11;83.68
57779;BME280;43608;49.486;9.640;2023-04-10T01:35:54;99424.09;;;0.33;83.26
57779;BME280;43608;49.486;9.640;2023-04-10T01:36:27;99418.59;;;0.27;83.31
57779;BME280;43608;49.486;9.640;2023-04-10T01:37:03;99426.63;;;0.32;83.48
57779;BME280;43608;49.486;9.640;2023-04-10T01:37:37;99428.34;;;0.31;83.33
57779;BME280;43608;49.486;9.640;2023-04-10T01:38:10;99421.22;;;0.27;83.16
57779;BME280;43608;49.486;9.640;2023-04-10T01:38:42;99429.97;;;0.29;83.76
57779;BME280;43608;49.486;9.640;2023-04-10T01:39:17;99422.84;;;0.25;83.37
57779;BME280;43608;49.486;9.640;2023-04-10T01:39:50;99427.38;;;0.29;83.62
57779;BME280;43608;49.486;9.640;2023-04-10T01:40:24;99437.66;;;0.26;83.35
57779;BME280;43608;49.486;9.640;2023-04-10T01:40:57;99429.91;;;0.28;83.38
57779;BME280;43608;49.486;9.640;2023-04-10T01:41:30;99431.53;;;0.26;83.42
57779;BME280;43608;49.486;9.640;2023-04-10T01:42:04;99409.06;;;0.10;83.55
57779;BME280;43608;49.486;9.640;2023-04-10T01:42:40;99406.31;;;0.07;83.59
57779;BME280;43608;49.486;9.640;2023-04-10T01:43:14;99418.06;;;0.16;83.55
57779;BME280;43608;49.486;9.640;2023-04-10T01:43:48;99426.94;;;0.20;83.41
57779;BME280;43608;49.486;9.640;2023-04-10T01:44:22;99430.59;;;0.24;83.67
57779;BME280;43608;49.486;9.640;2023-04-10T01:44:56;99440.09;;;0.23;83.61
57779;BME280;43608;49.486;9.640;2023-04-10T01:45:27;99423.28;;;0.16;84.03
57779;BME280;43608;49.486;9.640;2023-04-10T01:46:02;99435.72;;;0.22;83.91
57779;BME280;43608;49.486;9.640;2023-04-10T01:46:33;99431.25;;;0.20;83.76
57779;BME280;43608;49.486;9.640;2023-04-10T01:47:05;99435.63;;;0.21;84.01
57779;BME280;43608;49.486;9.640;2023-04-10T01:47:36;99433.03;;;0.21;83.77
57779;BME280;43608;49.486;9.640;2023-04-10T01:48:07;99436.47;;;0.20;83.86
57779;BME280;43608;49.486;9.640;2023-04-10T01:48:37;99429.28;;;0.15;84.25
57779;BME280;43608;49.486;9.640;2023-04-10T01:49:09;99422.22;;;0.13;83.89
57779;BME280;43608;49.486;9.640;2023-04-10T01:49:43;99431.75;;;0.12;84.08
57779;BME280;43608;49.486;9.640;2023-04-10T01:50:15;99436.16;;;0.13;84.39
57779;BME280;43608;49.486;9.640;2023-04-10T01:50:47;99424.81;;;0.13;84.21
57779;BME280;43608;49.486;9.640;2023-04-10T01:51:19;99428.34;;;0.13;84.21
57779;BME280;43608;49.486;9.640;2023-04-10T01:51:51;99435.41;;;0.16;84.38
57779;BME280;43608;49.486;9.640;2023-04-10T01:52:25;99404.13;;;-0.02;84.28
57779;BME280;43608;49.486;9.640;2023-04-10T01:52:58;99435.34;;;0.14;84.31
57779;BME280;43608;49.486;9.640;2023-04-10T01:53:30;99432.56;;;0.11;84.56
57779;BME280;43608;49.486;9.640;2023-04-10T01:54:01;99409.28;;;-0.04;84.46
57779;BME280;43608;49.486;9.640;2023-04-10T01:54:33;99411.06;;;-0.03;84.53
57779;BME280;43608;49.486;9.640;2023-04-10T01:55:05;99435.03;;;0.08;84.62
57779;BME280;43608;49.486;9.640;2023-04-10T01:55:37;99427.97;;;0.06;85.06
57779;BME280;43608;49.486;9.640;2023-04-10T01:56:08;99427.28;;;0.10;84.77
57779;BME280;43608;49.486;9.640;2023-04-10T01:56:39;99427.16;;;0.07;84.69
57779;BME280;43608;49.486;9.640;2023-04-10T01:57:10;99432.25;;;0.05;85.00
57779;BME280;43608;49.486;9.640;2023-04-10T01:57:44;99414.41;;;-0.05;84.62
57779;BME280;43608;49.486;9.640;2023-04-10T01:58:17;99435.13;;;0.10;84.90
57779;BME280;43608;49.486;9.640;2023-04-10T01:58:49;99434.13;;;0.08;84.81
57779;BME280;43608;49.486;9.640;2023-04-10T01:59:20;99415.53;;;0.00;84.71
57779;BME280;43608;49.486;9.640;2023-04-10T01:59:51;99425.34;;;0.06;84.93
57779;BME280;43608;49.486;9.640;2023-04-10T02:00:21;99409.28;;;-0.04;84.70
57779;BME280;43608;49.486;9.640;2023-04-10T02:00:51;99427.16;;;0.07;84.51
57779;BME280;43608;49.486;9.640;2023-04-10T02:01:22;99423.50;;;0.03;84.93
57779;BME280;43608;49.486;9.640;2023-04-10T02:01:59;99414.63;;;-0.01;84.68
57779;BME280;43608;49.486;9.640;2023-04-10T02:02:31;99417.38;;;0.03;84.59
57779;BME280;43608;49.486;9.640;2023-04-10T02:03:01;99426.16;;;0.05;84.71
57779;BME280;43608;49.486;9.640;2023-04-10T02:03:32;99416.50;;;0.02;84.73
57779;BME280;43608;49.486;9.640;2023-04-10T02:04:02;99411.13;;;-0.01;84.82
57779;BME280;43608;49.486;9.640;2023-04-10T02:04:32;99421.69;;;0.02;84.69
57779;BME280;43608;49.486;9.640;2023-04-10T02:05:03;99427.78;;;0.03;84.96
57779;BME280;43608;49.486;9.640;2023-04-10T02:06:00;99419.97;;;0.03;84.81
57779;BME280;43608;49.486;9.640;2023-04-10T02:07:02;99417.16;;;-0.02;84.37
57779;BME280;43608;49.486;9.640;2023-04-10T02:07:59;99417.16;;;-0.02;84.67
57779;BME280;43608;49.486;9.640;2023-04-10T02:08:56;99412.75;;;-0.03;84.68
57779;BME280;43608;49.486;9.640;2023-04-10T02:10:22;99411.88;;;-0.04;84.74
57779;BME280;43608;49.486;9.640;2023-04-10T02:11:01;99413.50;;;-0.06;84.73
57779;BME280;43608;49.486;9.640;2023-04-10T02:11:39;99409.03;;;-0.08;84.75
57779;BME280;43608;49.486;9.640;2023-04-10T02:12:15;99410.91;;;-0.06;84.57
57779;BME280;43608;49.486;9.640;2023-04-10T02:12:54;99411.63;;;-0.08;84.41
57779;BME280;43608;49.486;9.640;2023-04-10T02:13:33;99413.50;;;-0.06;84.60
57779;BME280;43608;49.486;9.640;2023-04-10T02:14:07;99414.31;;;-0.07;84.67
57779;BME280;43608;49.486;9.640;2023-04-10T02:14:44;99412.53;;;-0.08;84.61
57779;BME280;43608;49.486;9.640;2023-04-10T02:15:15;99404.56;;;-0.11;84.40
57779;BME280;43608;49.486;9.640;2023-04-10T02:15:49;99340.28;;;-0.46;84.60
57779;BME280;43608;49.486;9.640;2023-04-10T02:16:21;99410.69;;;-0.10;84.42
57779;BME280;43608;49.486;9.640;2023-04-10T02:16:52;99402.56;;;-0.17;84.64
57779;BME280;43608;49.486;9.640;2023-04-10T02:17:27;99415.91;;;-0.10;84.41
57779;BME280;43608;49.486;9.640;2023-04-10T02:17:59;99410.44;;;-0.15;84.54
57779;BME280;43608;49.486;9.640;2023-04-10T02:18:33;99400.69;;;-0.19;84.08
57779;BME280;43608;49.486;9.640;2023-04-10T02:19:04;99398.81;;;-0.22;84.48
57779;BME280;43608;49.486;9.640;2023-04-10T02:19:36;99414.91;;;-0.12;84.22
57779;BME280;43608;49.486;9.640;2023-04-10T02:20:08;99403.22;;;-0.21;84.34
57779;BME280;43608;49.486;9.640;2023-04-10T02:20:40;99418.31;;;-0.13;84.17
57779;BME280;43608;49.486;9.640;2023-04-10T02:21:11;99395.16;;;-0.25;84.19
57779;BME280;43608;49.486;9.640;2023-04-10T02:21:41;99413.03;;;-0.15;84.54
57779;BME280;43608;49.486;9.640;2023-04-10T02:22:13;99408.56;;;-0.18;84.21
57779;BME280;43608;49.486;9.640;2023-04-10T02:22:45;99400.50;;;-0.22;84.01
57779;BME280;43608;49.486;9.640;2023-04-10T02:23:16;99410.44;;;-0.15;84.46
57779;BME280;43608;49.486;9.640;2023-04-10T02:23:47;99404.97;;;-0.20;84.34
57779;BME280;43608;49.486;9.640;2023-04-10T02:24:18;99410.38;;;-0.17;84.04
57779;BME280;43608;49.486;9.640;2023-04-10T02:24:50;99406.78;;;-0.19;84.13
57779;BME280;43608;49.486;9.640;2023-04-10T02:25:20;99398.00;;;-0.21;84.15
57779;BME280;43608;49.486;9.640;2023-04-10T02:25:51;99406.63;;;-0.22;84.43
57779;BME280;43608;49.486;9.640;2023-04-10T02:26:21;99412.97;;;-0.17;84.19
57779;BME280;43608;49.486;9.640;2023-04-10T02:26:52;99407.75;;;-0.17;84.47
57779;BME280;43608;49.486;9.640;2023-04-10T02:27:32;99404.25;;;-0.17;84.51
57779;BME280;43608;49.486;9.640;2023-04-10T02:28:04;99399.78;;;-0.20;84.63
57779;BME280;43608;49.486;9.640;2023-04-10T02:28:38;99395.97;;;-0.26;84.74
57779;BME280;43608;49.486;9.640;2023-04-10T02:29:09;99411.09;;;-0.19;84.82
57779;BME280;43608;49.486;9.640;2023-04-10T02:29:39;99392.56;;;-0.25;84.82
57779;BME280;43608;49.486;9.640;2023-04-10T02:30:10;99399.69;;;-0.21;84.92
57779;BME280;43608;49.486;9.640;2023-04-10T02:30:40;99399.56;;;-0.24;85.06
57779;BME280;43608;49.486;9.640;2023-04-10T02:31:11;99394.41;;;-0.23;85.01
57779;BME280;43608;49.486;9.640;2023-04-10T02:31:42;99395.09;;;-0.27;84.84
57779;BME280;43608;49.486;9.640;2023-04-10T02:32:13;99388.00;;;-0.29;84.90
57779;BME280;43608;49.486;9.640;2023-04-10T02:32:45;99404.78;;;-0.24;85.26
57779;BME280;43608;49.486;9.640;2023-04-10T02:33:16;99399.56;;;-0.24;84.89
57779;BME280;43608;49.486;9.640;2023-04-10T02:33:46;99391.44;;;-0.30;85.03
57779;BME280;43608;49.486;9.640;2023-04-10T02:34:17;99400.38;;;-0.25;85.36
57779;BME280;43608;49.486;9.640;2023-04-10T02:34:47;99397.63;;;-0.28;85.24
57779;BME280;43608;49.486;9.640;2023-04-10T02:35:18;99400.38;;;-0.25;85.31
57779;BME280;43608;49.486;9.640;2023-04-10T02:35:48;99389.63;;;-0.31;85.28
57779;BME280;43608;49.486;9.640;2023-04-10T02:36:19;99366.41;;;-0.45;85.45
57779;BME280;43608;49.486;9.640;2023-04-10T02:36:49;99390.38;;;-0.34;85.53
57779;BME280;43608;49.486;9.640;2023-04-10T02:37:19;99402.16;;;-0.24;85.61
57779;BME280;43608;49.486;9.640;2023-04-10T02:37:50;99390.63;;;-0.29;85.53
57779;BME280;43608;49.486;9.640;2023-04-10T02:38:20;99388.91;;;-0.29;85.46
57779;BME280;43608;49.486;9.640;2023-04-10T02:38:51;99392.34;;;-0.30;85.64
57779;BME280;43608;49.486;9.640;2023-04-10T02:39:21;99383.47;;;-0.34;85.67
57779;BME280;43608;49.486;9.640;2023-04-10T02:39:51;99381.59;;;-0.36;85.60
57779;BME280;43608;49.486;9.640;2023-04-10T02:40:23;99382.50;;;-0.36;85.42
57779;BME280;43608;49.486;9.640;2023-04-10T02:40:54;99391.50;;;-0.29;85.62
57779;BME280;43608;49.486;9.640;2023-04-10T02:41:24;99379.81;;;-0.37;85.44
57779;BME280;43608;49.486;9.640;2023-04-10T02:41:55;99391.28;;;-0.34;85.43
57779;BME280;43608;49.486;9.640;2023-04-10T02:42:26;99392.09;;;-0.35;85.50
57779;BME280;43608;49.486;9.640;2023-04-10T02:42:56;99390.38;;;-0.34;85.99
57779;BME280;43608;49.486;9.640;2023-04-10T02:43:27;99404.38;;;-0.32;85.52
57779;BME280;43608;49.486;9.640;2023-04-10T02:43:58;99400.78;;;-0.34;85.73
57779;BME280;43608;49.486;9.640;2023-04-10T02:44:29;99399.97;;;-0.33;85.52
57779;BME280;43608;49.486;9.640;2023-04-10T02:44:59;99394.56;;;-0.38;85.80
57779;BME280;43608;49.486;9.640;2023-04-10T02:45:30;99398.13;;;-0.36;85.92
57779;BME280;43608;49.486;9.640;2023-04-10T02:46:02;99400.78;;;-0.34;85.72
57779;BME280;43608;49.486;9.640;2023-04-10T02:46:32;99398.94;;;-0.37;86.00
57779;BME280;43608;49.486;9.640;2023-04-10T02:47:03;99415.69;;;-0.31;85.59
57779;BME280;43608;49.486;9.640;2023-04-10T02:47:33;99414.81;;;-0.32;85.86
57779;BME280;43608;49.486;9.640;2023-04-10T02:48:06;99409.59;;;-0.32;85.63
57779;BME280;43608;49.486;9.640;2023-04-10T02:48:37;99407.66;;;-0.36;85.61
57779;BME280;43608;49.486;9.640;2023-04-10T02:49:07;99347.00;;;-0.68;85.52
57779;BME280;43608;49.486;9.640;2023-04-10T02:49:38;99407.72;;;-0.35;85.79
57779;BME280;43608;49.486;9.640;2023-04-10T02:50:08;99412.94;;;-0.35;85.85
57779;BME280;43608;49.486;9.640;2023-04-10T02:50:39;99404.25;;;-0.35;85.96
57779;BME280;43608;49.486;9.640;2023-04-10T02:51:15;99406.84;;;-0.35;85.99
57779;BME280;43608;49.486;9.640;2023-04-10T02:51:45;99392.44;;;-0.45;85.77
57779;BME280;43608;49.486;9.640;2023-04-10T02:52:15;99399.59;;;-0.41;85.87
57779;BME280;43608;49.486;9.640;2023-04-10T02:52:46;99408.41;;;-0.39;85.91
57779;BME280;43608;49.486;9.640;2023-04-10T02:53:17;99409.34;;;-0.37;86.15
57779;BME280;43608;49.486;9.640;2023-04-10T02:53:48;99415.41;;;-0.38;85.82
57779;BME280;43608;49.486;9.640;2023-04-10T02:54:19;99415.41;;;-0.38;86.11
57779;BME280;43608;49.486;9.640;2023-04-10T02:54:50;99416.22;;;-0.39;85.87
57779;BME280;43608;49.486;9.640;2023-04-10T02:55:21;99404.88;;;-0.39;86.20
57779;BME280;43608;49.486;9.640;2023-04-10T02:55:52;99410.81;;;-0.42;85.91
57779;BME280;43608;49.486;9.640;2023-04-10T02:56:23;99415.16;;;-0.42;85.92
57779;BME280;43608;49.486;9.640;2023-04-10T02:56:55;99411.75;;;-0.41;86.16
57779;BME280;43608;49.486;9.640;2023-04-10T02:57:26;99407.25;;;-0.44;85.98
57779;BME280;43608;49.486;9.640;2023-04-10T02:57:57;99394.66;;;-0.53;86.14
57779;BME280;43608;49.486;9.640;2023-04-10T02:58:28;99411.56;;;-0.44;85.80
57779;BME280;43608;49.486;9.640;2023-04-10T02:59:01;99401.88;;;-0.47;86.03
57779;BME280;43608;49.486;9.640;2023-04-10T02:59:31;99389.31;;;-0.56;85.85
57779;BME280;43608;49.486;9.640;2023-04-10T03:00:03;99398.41;;;-0.47;86.09
57779;BME280;43608;49.486;9.640;2023-04-10T03:00:34;99409.69;;;-0.47;85.78
57779;BME280;43608;49.486;9.640;2023-04-10T03:01:05;99395.31;;;-0.57;85.97
57779;BME280;43608;49.486;9.640;2023-04-10T03:01:39;99397.13;;;-0.56;85.89
57779;BME280;43608;49.486;9.640;2023-04-10T03:02:10;99411.41;;;-0.47;85.88
57779;BME280;43608;49.486;9.640;2023-04-10T03:02:40;99382.91;;;-0.62;85.89
57779;BME280;43608;49.486;9.640;2023-04-10T03:03:10;99418.34;;;-0.48;85.90
57779;BME280;43608;49.486;9.640;2023-04-10T03:03:41;99418.34;;;-0.48;86.16
57779;BME280;43608;49.486;9.640;2023-04-10T03:04:11;99409.41;;;-0.53;86.02
57779;BME280;43608;49.486;9.640;2023-04-10T03:04:42;99404.03;;;-0.56;86.22